createdAt,value
2022-08-17T00:00:06.016Z,20.61
2022-08-17T00:01:06.999Z,20.71
2022-08-17T00:02:18.720Z,20.78
2022-08-17T00:03:12.675Z,20.73
2022-08-17T00:04:11.923Z,20.72
2022-08-17T00:05:11.030Z,20.71
2022-08-17T00:06:12.777Z,20.64
2022-08-17T00:07:10.960Z,20.7
2022-08-17T00:08:12.041Z,20.69
2022-08-17T00:09:11.117Z,20.62
2022-08-17T00:10:15.144Z,20.55
2022-08-17T00:12:43.514Z,20.61
2022-08-17T00:14:22.993Z,20.62
2022-08-17T00:15:23.319Z,20.53
2022-08-17T00:16:56.149Z,20.59
2022-08-17T00:17:26.612Z,20.55
2022-08-17T00:19:01.851Z,20.52
2022-08-17T00:19:28.815Z,20.58
2022-08-17T00:20:32.057Z,20.54
2022-08-17T00:22:29.598Z,20.52
2022-08-17T00:22:36.406Z,20.55
2022-08-17T00:23:34.171Z,20.61
2022-08-17T00:24:33.722Z,20.77
2022-08-17T00:25:34.007Z,20.69
2022-08-17T00:26:44.145Z,20.59
2022-08-17T00:27:36.431Z,20.64
2022-08-17T00:28:37.068Z,20.64
2022-08-17T00:29:36.573Z,20.59
2022-08-17T00:30:51.335Z,20.59
2022-08-17T00:31:40.435Z,20.6
2022-08-17T00:33:12.667Z,20.59
2022-08-17T00:33:42.268Z,20.54
2022-08-17T00:34:42.195Z,20.57
2022-08-17T00:35:43.229Z,20.51
2022-08-17T00:36:42.209Z,20.48
2022-08-17T00:37:42.172Z,20.56
2022-08-17T00:38:42.622Z,20.62
2022-08-17T00:39:42.291Z,20.51
2022-08-17T00:40:44.803Z,20.43
2022-08-17T00:41:42.808Z,20.39
2022-08-17T00:42:43.295Z,20.4
2022-08-17T00:43:46.380Z,20.49
2022-08-17T00:44:43.043Z,20.52
2022-08-17T00:45:43.054Z,20.41
2022-08-17T00:46:43.686Z,20.34
2022-08-17T00:47:42.961Z,20.5
2022-08-17T00:48:43.276Z,20.52
2022-08-17T00:49:42.973Z,20.6
2022-08-17T00:50:49.963Z,20.52
2022-08-17T00:51:52.723Z,20.46
2022-08-17T00:52:54.720Z,20.37
2022-08-17T00:53:54.182Z,20.35
2022-08-17T00:54:53.672Z,20.35
2022-08-17T00:55:51.385Z,20.33
2022-08-17T00:56:53.686Z,20.34
2022-08-17T00:57:55.546Z,20.35
2022-08-17T00:58:54.500Z,20.34
2022-08-17T01:00:03.070Z,20.27
2022-08-17T01:00:55.251Z,20.21
2022-08-17T01:01:55.220Z,20.19
2022-08-17T01:03:00.442Z,20.22
2022-08-17T01:03:59.894Z,20.16
2022-08-17T01:04:57.054Z,20.29
2022-08-17T01:05:58.746Z,20.27
2022-08-17T01:06:58.243Z,20.25
2022-08-17T01:07:58.823Z,20.21
2022-08-17T01:08:58.469Z,20.19
2022-08-17T01:09:57.267Z,20.14
2022-08-17T01:11:01.799Z,20.13
2022-08-17T01:11:58.789Z,20.2
2022-08-17T01:13:00.533Z,20.21
2022-08-17T01:13:58.620Z,20.21
2022-08-17T01:14:58.640Z,20.2
2022-08-17T01:16:00.642Z,20.23
2022-08-17T01:16:58.727Z,20.23
2022-08-17T01:17:58.909Z,20.21
2022-08-17T01:19:00.286Z,20.33
2022-08-17T01:19:58.912Z,20.3
2022-08-17T01:21:01.936Z,20.27
2022-08-17T01:23:03.405Z,20.23
2022-08-17T01:24:03.751Z,20.2
2022-08-17T01:25:06.137Z,20.18
2022-08-17T01:26:04.094Z,20.21
2022-08-17T01:27:03.998Z,20.33
2022-08-17T01:28:07.393Z,20.33
2022-08-17T01:29:07.547Z,20.34
2022-08-17T01:30:58.658Z,20.2
2022-08-17T01:31:11.522Z,20.17
2022-08-17T01:32:11.924Z,20.19
2022-08-17T01:33:11.577Z,20.18
2022-08-17T01:34:12.812Z,20.13
2022-08-17T01:35:11.523Z,20.13
2022-08-17T01:36:11.559Z,20.08
2022-08-17T01:37:12.699Z,20.05
2022-08-17T01:38:11.534Z,19.99
2022-08-17T01:41:13.919Z,19.95
2022-08-17T01:43:18.120Z,19.86
2022-08-17T01:44:16.368Z,19.84
2022-08-17T01:45:16.753Z,19.83
2022-08-17T01:46:15.914Z,19.86
2022-08-17T01:47:14.738Z,19.83
2022-08-17T01:48:14.772Z,19.78
2022-08-17T01:49:14.878Z,19.72
2022-08-17T01:50:17.795Z,19.76
2022-08-17T01:51:15.724Z,19.9
2022-08-17T01:52:15.381Z,19.72
2022-08-17T01:53:22.496Z,19.72
2022-08-17T01:54:19.974Z,19.67
2022-08-17T01:55:27.210Z,19.58
2022-08-17T01:56:21.491Z,19.62
2022-08-17T01:57:19.095Z,19.52
2022-08-17T01:58:19.264Z,19.47
2022-08-17T01:59:19.782Z,19.49
2022-08-17T02:00:19.124Z,19.51
2022-08-17T02:01:20.753Z,19.48
2022-08-17T02:02:30.482Z,19.48
2022-08-17T02:03:24.105Z,19.56
2022-08-17T02:04:23.052Z,19.53
2022-08-17T02:05:23.034Z,19.51
2022-08-17T02:06:27.621Z,19.45
2022-08-17T02:07:26.911Z,19.35
2022-08-17T02:08:37.324Z,19.33
2022-08-17T02:09:29.658Z,19.43
2022-08-17T02:10:32.899Z,19.4
2022-08-17T02:11:33.716Z,19.28
2022-08-17T02:12:38.576Z,19.28
2022-08-17T02:13:32.248Z,19.26
2022-08-17T02:14:31.884Z,19.37
2022-08-17T02:15:32.297Z,19.41
2022-08-17T02:16:37.715Z,19.37
2022-08-17T02:17:35.401Z,19.27
2022-08-17T02:18:35.395Z,19.18
2022-08-17T02:19:35.289Z,19.17
2022-08-17T02:20:42.089Z,19.11
2022-08-17T02:21:40.778Z,19.08
2022-08-17T02:22:40.822Z,19.07
2022-08-17T02:23:41.725Z,18.97
2022-08-17T02:24:59.706Z,19.04
2022-08-17T02:25:44.666Z,18.99
2022-08-17T02:26:41.523Z,18.96
2022-08-17T02:27:41.339Z,18.97
2022-08-17T02:28:41.332Z,19.09
2022-08-17T02:29:41.416Z,19.15
2022-08-17T02:31:00.252Z,19.04
2022-08-17T02:31:43.835Z,19
2022-08-17T02:32:43.735Z,19.11
2022-08-17T02:33:43.815Z,19.14
2022-08-17T02:34:43.661Z,19.15
2022-08-17T02:35:43.636Z,19.1
2022-08-17T02:36:43.661Z,19.06
2022-08-17T02:37:43.677Z,19
2022-08-17T02:38:45.381Z,18.99
2022-08-17T02:39:45.965Z,18.99
2022-08-17T02:40:45.370Z,18.99
2022-08-17T02:41:45.489Z,19.02
2022-08-17T02:42:46.130Z,18.88
2022-08-17T02:43:45.430Z,18.92
2022-08-17T02:44:45.527Z,18.94
2022-08-17T02:45:45.575Z,18.93
2022-08-17T02:46:45.632Z,18.99
2022-08-17T02:47:46.548Z,19.04
2022-08-17T02:48:45.634Z,19.05
2022-08-17T02:49:54.170Z,18.95
2022-08-17T02:50:47.169Z,19
2022-08-17T02:51:47.718Z,19.03
2022-08-17T02:53:02.331Z,19.06
2022-08-17T02:53:50.109Z,19.04
2022-08-17T02:54:49.847Z,19.03
2022-08-17T02:55:49.848Z,18.99
2022-08-17T02:56:49.860Z,18.87
2022-08-17T02:57:50.513Z,18.84
2022-08-17T02:58:49.949Z,18.94
2022-08-17T02:59:49.888Z,19.06
2022-08-17T03:00:49.963Z,18.89
2022-08-17T03:01:50.350Z,19.04
2022-08-17T03:02:50.956Z,19.15
2022-08-17T03:03:49.900Z,19.24
2022-08-17T03:04:49.971Z,19.1
2022-08-17T03:05:50.416Z,19.19
2022-08-17T03:06:50.009Z,19.14
2022-08-17T03:07:50.662Z,19.08
2022-08-17T03:08:50.095Z,19.07
2022-08-17T03:09:50.195Z,18.96
2022-08-17T03:10:50.429Z,19.02
2022-08-17T03:11:50.285Z,19.05
2022-08-17T03:12:50.761Z,19.07
2022-08-17T03:13:50.283Z,19.13
2022-08-17T03:14:50.285Z,19.16
2022-08-17T03:15:50.674Z,19.13
2022-08-17T03:16:50.377Z,19.21
2022-08-17T03:17:50.776Z,19.15
2022-08-17T03:18:50.414Z,19.08
2022-08-17T03:19:50.312Z,19.17
2022-08-17T03:20:50.394Z,19.21
2022-08-17T03:21:55.193Z,19.21
2022-08-17T03:22:53.871Z,19.31
2022-08-17T03:23:54.455Z,19.34
2022-08-17T03:24:52.601Z,19.33
2022-08-17T03:25:53.781Z,19.28
2022-08-17T03:26:52.620Z,19.23
2022-08-17T03:27:53.462Z,19.24
2022-08-17T03:28:52.600Z,19.21
2022-08-17T03:29:53.266Z,19.17
2022-08-17T03:30:52.801Z,19.18
2022-08-17T03:31:52.709Z,19.19
2022-08-17T03:32:53.928Z,19.15
2022-08-17T03:33:52.654Z,19.22
2022-08-17T03:34:57.533Z,19.3
2022-08-17T03:35:54.698Z,19.32
2022-08-17T03:36:54.465Z,19.38
2022-08-17T03:38:00.228Z,19.36
2022-08-17T03:38:57.999Z,19.4
2022-08-17T03:39:58.247Z,19.4
2022-08-17T03:40:59.937Z,19.39
2022-08-17T03:42:08.195Z,19.37
2022-08-17T03:43:04.643Z,19.37
2022-08-17T03:44:01.921Z,19.35
2022-08-17T03:45:02.584Z,19.38
2022-08-17T03:46:02.618Z,19.37
2022-08-17T03:47:01.578Z,19.36
2022-08-17T03:48:01.919Z,19.35
2022-08-17T03:49:02.937Z,19.35
2022-08-17T03:50:01.890Z,19.36
2022-08-17T03:51:01.699Z,19.38
2022-08-17T03:52:01.685Z,19.37
2022-08-17T03:53:05.349Z,19.42
2022-08-17T03:54:02.458Z,19.45
2022-08-17T03:55:03.825Z,19.37
2022-08-17T03:56:04.604Z,19.38
2022-08-17T03:57:05.106Z,19.35
2022-08-17T03:58:03.534Z,19.37
2022-08-17T03:59:03.526Z,19.35
2022-08-17T04:00:04.206Z,19.31
2022-08-17T04:01:04.611Z,19.29
2022-08-17T04:02:08.289Z,19.32
2022-08-17T04:03:05.090Z,19.25
2022-08-17T04:04:05.761Z,19.21
2022-08-17T04:05:05.660Z,19.19
2022-08-17T04:06:05.534Z,19.15
2022-08-17T04:07:05.636Z,19.13
2022-08-17T04:08:05.478Z,19.13
2022-08-17T04:09:05.396Z,19.11
2022-08-17T04:10:05.799Z,19.1
2022-08-17T04:11:05.521Z,19.1
2022-08-17T04:12:05.682Z,19.12
2022-08-17T04:13:05.456Z,19.11
2022-08-17T04:14:06.287Z,19.13
2022-08-17T04:15:05.775Z,19.16
2022-08-17T04:16:05.763Z,19.18
2022-08-17T04:17:05.498Z,19.21
2022-08-17T04:18:07.448Z,19.25
2022-08-17T04:19:06.166Z,19.26
2022-08-17T04:20:05.804Z,19.28
2022-08-17T04:21:08.393Z,19.3
2022-08-17T04:22:05.382Z,19.31
2022-08-17T04:23:08.311Z,19.33
2022-08-17T04:24:05.831Z,19.42
2022-08-17T04:25:09.908Z,19.47
2022-08-17T04:26:06.920Z,19.58
2022-08-17T04:27:06.904Z,19.61
2022-08-17T04:28:09.039Z,19.64
2022-08-17T04:29:08.512Z,19.75
2022-08-17T04:30:09.042Z,19.76
2022-08-17T04:31:12.174Z,19.8
2022-08-17T04:32:09.255Z,19.91
2022-08-17T04:33:11.107Z,19.99
2022-08-17T04:34:09.458Z,20.04
2022-08-17T04:35:09.296Z,20.05
2022-08-17T04:36:09.484Z,20.08
2022-08-17T04:37:09.168Z,20.17
2022-08-17T04:38:11.457Z,20.21
2022-08-17T04:39:09.303Z,20.25
2022-08-17T04:40:09.783Z,20.28
2022-08-17T04:41:09.853Z,20.29
2022-08-17T04:42:09.370Z,20.27
2022-08-17T04:43:13.937Z,20.33
2022-08-17T04:44:10.885Z,20.34
2022-08-17T04:45:11.257Z,20.38
2022-08-17T04:46:12.453Z,20.36
2022-08-17T04:47:10.875Z,20.37
2022-08-17T04:48:11.186Z,20.4
2022-08-17T04:49:11.200Z,20.42
2022-08-17T04:50:11.156Z,20.45
2022-08-17T04:51:15.614Z,20.47
2022-08-17T04:52:12.583Z,20.49
2022-08-17T04:53:14.464Z,20.5
2022-08-17T04:54:15.777Z,20.5
2022-08-17T04:55:14.863Z,20.48
2022-08-17T04:56:16.644Z,20.55
2022-08-17T04:57:14.683Z,20.59
2022-08-17T04:58:14.515Z,20.59
2022-08-17T04:59:16.004Z,20.63
2022-08-17T05:00:14.761Z,20.66
2022-08-17T05:01:15.328Z,20.66
2022-08-17T05:02:14.670Z,20.65
2022-08-17T05:03:14.558Z,20.68
2022-08-17T05:04:33.110Z,20.68
2022-08-17T05:06:19.340Z,20.67
2022-08-17T05:07:23.510Z,20.62
2022-08-17T05:08:21.573Z,20.66
2022-08-17T05:09:21.266Z,20.65
2022-08-17T05:10:21.662Z,20.68
2022-08-17T05:11:21.541Z,20.69
2022-08-17T05:12:21.381Z,20.7
2022-08-17T05:13:23.151Z,20.74
2022-08-17T05:14:21.414Z,20.78
2022-08-17T05:15:24.801Z,20.76
2022-08-17T05:16:25.967Z,20.78
2022-08-17T05:17:24.831Z,20.76
2022-08-17T05:18:24.999Z,20.69
2022-08-17T05:19:24.763Z,20.77
2022-08-17T05:20:24.991Z,20.8
2022-08-17T05:21:25.056Z,20.81
2022-08-17T05:22:24.880Z,20.82
2022-08-17T05:23:25.919Z,20.85
2022-08-17T05:24:42.684Z,20.88
2022-08-17T05:26:29.360Z,20.84
2022-08-17T05:27:29.303Z,20.9
2022-08-17T05:28:32.041Z,20.93
2022-08-17T05:29:35.229Z,20.92
2022-08-17T05:30:32.325Z,20.98
2022-08-17T05:31:32.388Z,20.99
2022-08-17T05:32:38.457Z,21.09
2022-08-17T05:33:41.456Z,21.08
2022-08-17T05:34:40.464Z,21.16
2022-08-17T05:35:42.256Z,21.18
2022-08-17T05:36:44.146Z,21.28
2022-08-17T05:37:41.111Z,21.31
2022-08-17T05:38:41.096Z,21.39
2022-08-17T05:39:41.148Z,21.48
2022-08-17T05:40:41.553Z,21.48
2022-08-17T05:41:41.086Z,21.48
2022-08-17T05:42:41.126Z,21.45
2022-08-17T05:43:41.877Z,21.38
2022-08-17T05:44:41.079Z,21.37
2022-08-17T05:46:51.394Z,21.47
2022-08-17T05:47:48.465Z,21.5
2022-08-17T05:48:50.205Z,21.51
2022-08-17T05:49:49.024Z,21.52
2022-08-17T05:55:07.046Z,21.86
2022-08-17T05:56:19.861Z,21.86
2022-08-17T05:58:13.560Z,22.02
2022-08-17T05:59:14.488Z,22.08
2022-08-17T06:00:14.511Z,22.06
2022-08-17T06:16:59.044Z,23.24
2022-08-17T06:17:58.514Z,23.35
2022-08-17T06:20:04.277Z,23.43
2022-08-17T06:21:04.761Z,23.43
2022-08-17T06:22:02.695Z,23.57
2022-08-17T06:23:09.008Z,23.7
2022-08-17T06:25:19.679Z,23.94
2022-08-17T06:26:14.190Z,24.07
2022-08-17T06:28:13.818Z,23.93
2022-08-17T06:30:16.209Z,24.09
2022-08-17T06:31:17.436Z,24.12
2022-08-17T06:32:14.185Z,23.97
2022-08-17T06:33:19.417Z,24.02
2022-08-17T06:34:16.077Z,24.12
2022-08-17T06:35:17.696Z,24.19
2022-08-17T06:38:38.506Z,23.96
2022-08-17T06:45:41.768Z,24.07
2022-08-17T06:46:50.935Z,24.14
2022-08-17T06:48:51.925Z,24.15
2022-08-17T06:50:53.388Z,24.23
2022-08-17T06:54:07.090Z,24.15
2022-08-17T06:55:02.133Z,24.33
2022-08-17T06:56:05.859Z,24.26
2022-08-17T06:57:09.970Z,24.49
2022-08-17T06:58:16.230Z,24.74
2022-08-17T06:59:11.050Z,24.96
2022-08-17T07:00:19.617Z,24.78
2022-08-17T07:01:19.164Z,24.76
2022-08-17T07:02:19.823Z,24.68
2022-08-17T07:03:32.143Z,24.6
2022-08-17T07:04:30.093Z,24.58
2022-08-17T07:05:32.779Z,24.46
2022-08-17T07:06:37.718Z,24.69
2022-08-17T07:07:30.371Z,24.71
2022-08-17T07:09:35.613Z,24.88
2022-08-17T07:10:39.164Z,24.91
2022-08-17T07:11:40.703Z,24.81
2022-08-17T07:12:41.181Z,24.74
2022-08-17T07:13:44.450Z,24.81
2022-08-17T07:15:41.732Z,24.69
2022-08-17T07:16:42.240Z,24.74
2022-08-17T07:17:47.463Z,24.83
2022-08-17T07:18:45.503Z,24.82
2022-08-17T07:19:45.869Z,24.8
2022-08-17T07:20:47.999Z,24.87
2022-08-17T07:22:57.538Z,24.77
2022-08-17T07:24:56.074Z,25.22
2022-08-17T07:25:52.636Z,25.15
2022-08-17T07:27:58.453Z,25.18
2022-08-17T07:28:57.044Z,25.31
2022-08-17T07:30:11.353Z,25.44
2022-08-17T07:30:58.489Z,25.31
2022-08-17T07:31:59.069Z,25.2
2022-08-17T07:33:01.019Z,25.24
2022-08-17T07:34:00.912Z,24.96
2022-08-17T07:36:02.797Z,24.98
2022-08-17T07:37:04.238Z,24.96
2022-08-17T07:38:25.204Z,24.99
2022-08-17T07:39:04.041Z,25.01
2022-08-17T07:41:09.339Z,24.93
2022-08-17T07:42:10.240Z,25.05
2022-08-17T07:44:11.628Z,25.15
2022-08-17T07:45:08.391Z,25.04
2022-08-17T07:47:15.914Z,25.08
2022-08-17T07:50:29.469Z,25.11
2022-08-17T07:51:23.304Z,25.11
2022-08-17T07:52:50.948Z,25.13
2022-08-17T07:53:25.553Z,25.18
2022-08-17T07:54:31.496Z,25.06
2022-08-17T07:55:30.712Z,24.99
2022-08-17T07:56:36.958Z,24.97
2022-08-17T07:57:35.636Z,24.89
2022-08-17T07:58:32.663Z,25.06
2022-08-17T07:59:34.108Z,25.12
2022-08-17T08:00:33.107Z,25.2
2022-08-17T08:01:39.380Z,25.27
2022-08-17T08:02:37.777Z,25.16
2022-08-17T08:03:40.437Z,25.1
2022-08-17T08:04:59.781Z,25.07
2022-08-17T08:06:48.043Z,24.92
2022-08-17T08:08:51.045Z,25.06
2022-08-17T08:11:00.764Z,25.06
2022-08-17T08:11:57.291Z,25.16
2022-08-17T08:13:06.942Z,25.18
2022-08-17T08:15:18.537Z,25.3
2022-08-17T08:17:10.016Z,25.32
2022-08-17T08:19:10.327Z,25.51
2022-08-17T08:20:35.024Z,25.77
2022-08-17T08:22:21.415Z,25.79
2022-08-17T08:27:39.287Z,25.54
2022-08-17T08:33:56.760Z,26.08
2022-08-17T08:35:05.311Z,26.05
2022-08-17T08:39:06.278Z,25.96
2022-08-17T08:40:10.806Z,26.22
2022-08-17T08:45:00.923Z,26.29
2022-08-17T08:45:28.399Z,26.27
2022-08-17T08:57:45.280Z,26.57
2022-08-17T09:00:54.447Z,26.48
2022-08-17T09:06:37.926Z,26.29
2022-08-17T09:08:27.538Z,26.44
2022-08-17T09:10:30.685Z,26.58
2022-08-17T09:11:26.619Z,26.41
2022-08-17T09:14:32.803Z,26.66
2022-08-17T09:15:38.408Z,26.49
2022-08-17T09:19:00.988Z,26.48
2022-08-17T09:19:48.684Z,26.32
2022-08-17T09:20:50.412Z,26.65
2022-08-17T09:22:50.747Z,26.8
2022-08-17T09:26:00.759Z,26.86
2022-08-17T09:28:06.553Z,26.67
2022-08-17T09:29:08.601Z,26.81
2022-08-17T09:30:09.033Z,26.71
2022-08-17T09:31:11.224Z,26.65
2022-08-17T09:33:09.902Z,26.62
2022-08-17T09:34:15.121Z,26.61
2022-08-17T09:35:21.157Z,26.68
2022-08-17T09:36:20.777Z,26.66
2022-08-17T09:40:25.765Z,27.16
2022-08-17T09:48:54.396Z,26.83
2022-08-17T09:49:55.002Z,26.8
2022-08-17T09:51:58.383Z,26.81
2022-08-17T09:52:57.671Z,26.86
2022-08-17T09:54:05.187Z,27.01
2022-08-17T09:54:57.413Z,26.94
2022-08-17T10:03:20.993Z,27.38
2022-08-17T10:06:24.958Z,27.08
2022-08-17T10:12:47.054Z,27.36
2022-08-17T10:16:55.581Z,27.37
2022-08-17T10:22:33.024Z,27.11
2022-08-17T10:23:11.081Z,27.02
2022-08-17T10:24:07.419Z,27.33
2022-08-17T10:25:22.430Z,27.27
2022-08-17T10:27:13.033Z,27.47
2022-08-17T10:28:19.855Z,27.51
2022-08-17T10:29:20.756Z,27.32
2022-08-17T10:30:16.270Z,27.34
2022-08-17T10:31:34.289Z,27.34
2022-08-17T10:33:23.271Z,27.24
2022-08-17T10:39:52.022Z,27.44
2022-08-17T10:40:53.767Z,27.21
2022-08-17T10:41:45.253Z,27.32
2022-08-17T10:42:51.518Z,27.42
2022-08-17T10:46:10.407Z,27.22
2022-08-17T10:48:05.887Z,27.06
2022-08-17T10:51:01.814Z,27.41
2022-08-17T10:53:01.233Z,27.35
2022-08-17T10:54:01.256Z,27.32
2022-08-17T10:59:07.959Z,27.7
2022-08-17T11:00:12.841Z,27.82
2022-08-17T11:01:09.992Z,27.95
2022-08-17T11:02:20.004Z,27.98
2022-08-17T11:16:58.836Z,27.57
2022-08-17T11:27:23.866Z,27.3
2022-08-17T11:28:18.150Z,27.2
2022-08-17T11:29:20.997Z,27.25
2022-08-17T11:34:26.712Z,27.42
2022-08-17T11:35:32.642Z,27.63
2022-08-17T11:48:09.382Z,27.37
2022-08-17T11:48:54.573Z,27.69
2022-08-17T11:50:00.802Z,27.71
2022-08-17T11:50:55.056Z,27.97
2022-08-17T11:52:57.123Z,28.15
2022-08-17T11:54:21.592Z,28.15
2022-08-17T11:55:17.586Z,28.14
2022-08-17T11:56:03.513Z,27.81
2022-08-17T12:00:06.943Z,28.09
2022-08-17T12:01:07.177Z,28
2022-08-17T12:03:21.584Z,27.89
2022-08-17T12:05:25.358Z,27.87
2022-08-17T12:07:22.569Z,27.71
2022-08-17T12:08:21.691Z,27.99
2022-08-17T12:09:30.805Z,27.92
2022-08-17T12:10:25.611Z,28.31
2022-08-17T12:12:27.705Z,28.08
2022-08-17T12:13:30.453Z,28.15
2022-08-17T12:14:45.436Z,28.19
2022-08-17T12:16:32.947Z,28.31
2022-08-17T12:17:40.502Z,28.18
2022-08-17T12:18:36.004Z,27.99
2022-08-17T12:19:35.057Z,27.91
2022-08-17T12:20:39.214Z,28.09
2022-08-17T12:21:40.328Z,28.34
2022-08-17T12:23:44.124Z,28.4
2022-08-17T12:25:47.628Z,28.24
2022-08-17T12:28:05.469Z,28.15
2022-08-17T12:28:50.543Z,28.14
2022-08-17T12:29:48.976Z,28.38
2022-08-17T12:30:50.220Z,28.47
2022-08-17T12:31:50.465Z,28.18
2022-08-17T12:32:48.934Z,28.17
2022-08-17T12:33:49.165Z,28.19
2022-08-17T12:34:49.719Z,28.4
2022-08-17T12:35:48.954Z,28.32
2022-08-17T12:36:51.026Z,28.34
2022-08-17T12:37:50.543Z,28.53
2022-08-17T12:40:55.160Z,28.27
2022-08-17T12:42:01.426Z,28.71
2022-08-17T12:43:03.603Z,29.07
2022-08-17T12:44:01.663Z,29
2022-08-17T12:45:00.619Z,29.36
2022-08-17T12:46:13.310Z,28.89
2022-08-17T12:47:10.233Z,28.82
2022-08-17T12:49:17.149Z,29.38
2022-08-17T12:50:28.955Z,29.3
2022-08-17T12:51:16.983Z,29.55
2022-08-17T12:52:21.814Z,29.14
2022-08-17T12:53:24.167Z,29.55
2022-08-17T12:54:33.635Z,29.19
2022-08-17T12:55:26.272Z,28.95
2022-08-17T12:56:29.608Z,28.9
2022-08-17T12:58:35.769Z,28.79
2022-08-17T12:59:34.081Z,28.63
2022-08-17T13:00:36.811Z,28.5
2022-08-17T13:01:34.436Z,28.82
2022-08-17T13:04:39.598Z,28.21
2022-08-17T13:05:42.033Z,28.3
2022-08-17T13:07:42.620Z,28.23
2022-08-17T13:08:46.520Z,28.69
2022-08-17T13:11:53.741Z,28.68
2022-08-17T13:12:51.406Z,28.72
2022-08-17T13:13:51.733Z,28.83
2022-08-17T13:14:50.283Z,28.83
2022-08-17T13:16:59.167Z,28.56
2022-08-17T13:17:57.291Z,28.47
2022-08-17T13:19:57.626Z,28.24
2022-08-17T13:20:58.506Z,28.21
2022-08-17T13:21:58.816Z,28.16
2022-08-17T13:22:58.841Z,27.87
2022-08-17T13:25:00.361Z,27.77
2022-08-17T13:26:03.275Z,27.94
2022-08-17T13:27:08.703Z,27.81
2022-08-17T13:28:00.922Z,27.83
2022-08-17T13:29:02.333Z,27.63
2022-08-17T13:30:02.241Z,28.11
2022-08-17T13:36:10.015Z,28.23
2022-08-17T13:38:15.249Z,28.15
2022-08-17T13:42:29.960Z,28.15
2022-08-17T13:46:31.965Z,27.87
2022-08-17T13:47:28.693Z,27.92
2022-08-17T13:48:29.333Z,28.04
2022-08-17T13:49:48.248Z,28.05
2022-08-17T13:50:30.886Z,27.97
2022-08-17T13:51:33.814Z,27.89
2022-08-17T13:54:40.695Z,27.66
2022-08-17T13:55:40.273Z,27.64
2022-08-17T13:56:46.374Z,27.89
2022-08-17T13:58:03.994Z,27.71
2022-08-17T13:59:54.992Z,27.97
2022-08-17T14:00:47.490Z,28.07
2022-08-17T14:01:53.615Z,27.9
2022-08-17T14:02:50.663Z,27.88
2022-08-17T14:03:51.492Z,27.8
2022-08-17T14:04:50.657Z,27.73
2022-08-17T14:05:51.542Z,27.56
2022-08-17T14:07:59.660Z,27.67
2022-08-17T14:08:56.242Z,27.86
2022-08-17T14:11:00.295Z,27.36
2022-08-17T14:12:00.698Z,27.73
2022-08-17T14:13:00.194Z,27.59
2022-08-17T14:14:00.380Z,27.7
2022-08-17T14:15:00.612Z,27.86
2022-08-17T14:16:00.306Z,28.02
2022-08-17T14:17:00.259Z,28.32
2022-08-17T14:18:00.431Z,28.08
2022-08-17T14:19:00.319Z,27.89
2022-08-17T14:20:00.230Z,27.86
2022-08-17T14:21:00.460Z,27.81
2022-08-17T14:22:00.487Z,27.74
2022-08-17T14:23:00.344Z,27.7
2022-08-17T14:24:00.428Z,27.53
2022-08-17T14:25:00.757Z,27.66
2022-08-17T14:26:00.571Z,27.29
2022-08-17T14:27:01.666Z,27.25
2022-08-17T14:28:01.062Z,27.28
2022-08-17T14:29:00.570Z,27.37
2022-08-17T14:30:01.434Z,27.15
2022-08-17T14:31:00.940Z,27.19
2022-08-17T14:32:03.488Z,27.25
2022-08-17T14:33:00.443Z,27.34
2022-08-17T14:34:00.617Z,27.37
2022-08-17T14:35:03.703Z,27.41
2022-08-17T14:36:00.608Z,27.4
2022-08-17T14:37:00.539Z,27.43
2022-08-17T14:38:02.782Z,27.64
2022-08-17T14:39:00.681Z,27.67
2022-08-17T14:40:02.477Z,27.66
2022-08-17T14:41:00.736Z,27.66
2022-08-17T14:42:01.338Z,27.57
2022-08-17T14:43:00.936Z,27.55
2022-08-17T14:44:01.026Z,27.61
2022-08-17T14:45:00.693Z,27.58
2022-08-17T14:46:00.962Z,27.61
2022-08-17T14:47:00.771Z,27.61
2022-08-17T14:48:09.711Z,27.85
2022-08-17T14:49:01.549Z,27.77
2022-08-17T14:50:02.134Z,27.65
2022-08-17T14:51:01.724Z,27.77
2022-08-17T14:52:02.048Z,27.79
2022-08-17T14:53:01.981Z,27.74
2022-08-17T14:54:02.033Z,27.92
2022-08-17T14:55:01.817Z,27.84
2022-08-17T14:56:01.800Z,27.95
2022-08-17T14:57:22.220Z,27.82
2022-08-17T14:58:03.314Z,27.86
2022-08-17T14:59:03.621Z,27.74
2022-08-17T15:00:04.557Z,27.93
2022-08-17T15:01:03.480Z,28.2
2022-08-17T15:02:03.430Z,28.14
2022-08-17T15:03:04.193Z,28.11
2022-08-17T15:04:03.622Z,27.92
2022-08-17T15:05:05.073Z,28.17
2022-08-17T15:06:03.861Z,27.99
2022-08-17T15:07:03.893Z,27.96
2022-08-17T15:08:04.241Z,27.84
2022-08-17T15:09:03.524Z,27.77
2022-08-17T15:10:03.946Z,27.6
2022-08-17T15:11:04.050Z,28.06
2022-08-17T15:12:03.913Z,27.81
2022-08-17T15:13:03.804Z,28.17
2022-08-17T15:14:03.571Z,28.06
2022-08-17T15:15:05.445Z,27.82
2022-08-17T15:16:03.960Z,28.12
2022-08-17T15:17:03.798Z,28.42
2022-08-17T15:18:03.914Z,28.51
2022-08-17T15:19:07.608Z,28.27
2022-08-17T15:20:05.886Z,28.12
2022-08-17T15:21:05.075Z,28.3
2022-08-17T15:22:04.108Z,28.07
2022-08-17T15:23:04.247Z,28.17
2022-08-17T15:24:05.121Z,28.09
2022-08-17T15:25:05.473Z,28.19
2022-08-17T15:26:04.167Z,28.24
2022-08-17T15:27:04.492Z,28.18
2022-08-17T15:28:04.558Z,28.26
2022-08-17T15:29:04.204Z,28.03
2022-08-17T15:30:05.412Z,28.11
2022-08-17T15:31:04.516Z,27.99
2022-08-17T15:32:04.628Z,27.94
2022-08-17T15:33:04.344Z,27.45
2022-08-17T15:34:04.275Z,27.37
2022-08-17T15:35:06.172Z,27.18
2022-08-17T15:36:06.424Z,27.01
2022-08-17T15:37:04.702Z,26.83
2022-08-17T15:38:11.242Z,26.8
2022-08-17T15:39:08.744Z,26.86
2022-08-17T15:40:09.356Z,26.72
2022-08-17T15:41:09.622Z,26.8
2022-08-17T15:42:09.461Z,26.6
2022-08-17T15:43:10.024Z,26.41
2022-08-17T15:44:08.779Z,26.31
2022-08-17T15:45:10.638Z,26.36
2022-08-17T15:46:10.068Z,26.19
2022-08-17T15:47:08.802Z,26.34
2022-08-17T15:48:09.129Z,26.08
2022-08-17T15:49:08.757Z,25.94
2022-08-17T15:50:09.331Z,25.72
2022-08-17T15:53:13.016Z,25.72
2022-08-17T15:54:22.340Z,25.84
2022-08-17T15:55:14.785Z,25.71
2022-08-17T15:56:15.034Z,25.6
2022-08-17T15:57:14.547Z,25.35
2022-08-17T15:58:14.542Z,25.45
2022-08-17T15:59:15.729Z,25.36
2022-08-17T16:00:15.862Z,25.26
2022-08-17T16:01:42.280Z,25.17
2022-08-17T16:03:47.145Z,25.02
2022-08-17T16:03:58.269Z,24.84
2022-08-17T16:04:30.401Z,24.92
2022-08-17T16:05:27.882Z,24.87
2022-08-17T16:06:28.659Z,24.79
2022-08-17T16:07:27.668Z,24.79
2022-08-17T16:08:28.232Z,24.77
2022-08-17T16:09:27.758Z,24.83
2022-08-17T16:10:34.584Z,24.75
2022-08-17T16:11:32.020Z,24.59
2022-08-17T16:12:32.500Z,24.38
2022-08-17T16:13:32.023Z,24.31
2022-08-17T16:14:34.808Z,24.34
2022-08-17T16:15:32.303Z,24.36
2022-08-17T16:16:32.336Z,24.54
2022-08-17T16:17:39.912Z,24.26
2022-08-17T16:18:32.335Z,24.13
2022-08-17T16:19:32.514Z,24.12
2022-08-17T16:20:32.089Z,24.14
2022-08-17T16:21:42.487Z,24.12
2022-08-17T16:22:39.538Z,24
2022-08-17T16:23:36.065Z,23.93
2022-08-17T16:24:37.961Z,23.81
2022-08-17T16:25:52.280Z,23.93
2022-08-17T16:26:41.267Z,23.94
2022-08-17T16:27:41.429Z,24.03
2022-08-17T16:28:41.317Z,23.99
2022-08-17T16:29:41.229Z,23.91
2022-08-17T16:30:41.698Z,23.82
2022-08-17T16:31:41.349Z,23.74
2022-08-17T16:32:41.818Z,23.72
2022-08-17T16:33:43.357Z,23.55
2022-08-17T16:34:44.810Z,23.48
2022-08-17T16:35:44.762Z,23.29
2022-08-17T16:36:53.767Z,23.25
2022-08-17T16:37:47.839Z,23.19
2022-08-17T16:38:47.417Z,23.12
2022-08-17T16:39:47.824Z,23.1
2022-08-17T16:40:47.406Z,23.08
2022-08-17T16:41:47.438Z,23.17
2022-08-17T16:42:48.562Z,23.25
2022-08-17T16:43:47.422Z,23.17
2022-08-17T16:44:47.507Z,23.29
2022-08-17T16:45:51.860Z,23.33
2022-08-17T16:46:49.178Z,23.38
2022-08-17T16:47:49.039Z,23.39
2022-08-17T16:48:48.671Z,23.39
2022-08-17T16:49:49.517Z,23.45
2022-08-17T16:51:03.106Z,23.4
2022-08-17T16:51:51.527Z,23.35
2022-08-17T16:52:52.120Z,23.29
2022-08-17T16:53:59.419Z,23.17
2022-08-17T16:54:56.957Z,23.04
2022-08-17T16:55:56.752Z,22.89
2022-08-17T16:56:56.742Z,22.91
2022-08-17T16:57:56.754Z,22.92
2022-08-17T16:58:56.660Z,22.91
2022-08-17T17:00:00.276Z,22.93
2022-08-17T17:01:00.174Z,22.98
2022-08-17T17:02:00.090Z,22.95
2022-08-17T17:03:07.831Z,22.94
2022-08-17T17:04:04.801Z,22.81
2022-08-17T17:09:16.893Z,22.41
2022-08-17T17:10:16.420Z,22.48
2022-08-17T17:11:15.523Z,22.4
2022-08-17T17:12:17.598Z,22.37
2022-08-17T17:13:19.253Z,22.35